createdAt,value
2022-08-02T00:01:40.212Z,5.00
2022-08-02T00:04:07.003Z,6.35
2022-08-02T00:06:34.152Z,6.10
2022-08-02T00:09:01.386Z,5.40
2022-08-02T00:11:27.934Z,4.85
2022-08-02T00:13:54.629Z,4.80
2022-08-02T00:16:21.251Z,3.62
2022-08-02T00:19:04.442Z,4.78
2022-08-02T00:21:31.142Z,4.37
2022-08-02T00:24:27.793Z,4.22
2022-08-02T00:26:55.040Z,3.95
2022-08-02T00:29:21.550Z,4.55
2022-08-02T00:31:48.102Z,3.53
2022-08-02T00:34:28.798Z,3.28
2022-08-02T00:36:57.908Z,3.35
2022-08-02T00:39:33.990Z,3.42
2022-08-02T00:42:03.094Z,4.03
2022-08-02T00:44:29.685Z,3.20
2022-08-02T00:46:56.270Z,3.70
2022-08-02T00:49:22.917Z,3.45
2022-08-02T00:51:51.182Z,3.12
2022-08-02T00:54:18.278Z,3.33
2022-08-02T00:56:50.104Z,3.25
2022-08-02T00:59:18.433Z,3.03
2022-08-02T01:01:56.386Z,3.00
2022-08-02T01:04:30.422Z,2.95
2022-08-02T01:07:00.422Z,3.40
2022-08-02T01:09:27.547Z,3.10
2022-08-02T01:11:54.090Z,3.85
2022-08-02T01:14:24.682Z,3.50
2022-08-02T01:17:16.976Z,3.28
2022-08-02T01:22:59.984Z,2.92
2022-08-02T01:26:52.470Z,3.20
2022-08-02T01:29:33.733Z,2.97
2022-08-02T01:32:14.567Z,2.95
2022-08-02T01:34:53.751Z,3.10
2022-08-02T01:39:55.902Z,3.17
2022-08-02T01:42:26.688Z,3.22
2022-08-02T01:44:56.379Z,2.50
2022-08-02T01:47:34.986Z,2.97
2022-08-02T01:50:05.189Z,3.20
2022-08-02T01:52:38.466Z,3.03
2022-08-02T01:55:18.696Z,3.22
2022-08-02T01:58:00.284Z,3.00
2022-08-02T02:00:32.339Z,3.28
2022-08-02T02:03:02.536Z,2.80
2022-08-02T02:05:32.934Z,3.00
2022-08-02T02:08:05.082Z,3.00
2022-08-02T02:10:37.657Z,3.22
2022-08-02T02:13:18.132Z,3.60
2022-08-02T02:15:49.039Z,2.83
2022-08-02T02:18:24.072Z,3.60
2022-08-02T02:20:51.866Z,3.30
2022-08-02T02:23:19.368Z,3.15
2022-08-02T02:25:55.744Z,3.00
2022-08-02T02:28:29.842Z,3.37
2022-08-02T02:31:06.303Z,3.10
2022-08-02T02:33:41.726Z,3.30
2022-08-02T02:36:11.237Z,3.67
2022-08-02T02:38:40.698Z,3.50
2022-08-02T02:41:07.603Z,3.30
2022-08-02T02:43:37.963Z,3.53
2022-08-02T02:46:07.777Z,3.00
2022-08-02T02:48:36.633Z,3.35
2022-08-02T02:51:13.965Z,3.17
2022-08-02T02:54:29.836Z,3.35
2022-08-02T02:57:07.173Z,3.33
2022-08-02T02:59:49.105Z,2.72
2022-08-02T03:02:18.271Z,2.95
2022-08-02T03:04:57.474Z,3.65
2022-08-02T03:07:26.061Z,2.87
2022-08-02T03:09:54.207Z,3.00
2022-08-02T03:12:27.158Z,3.33
2022-08-02T03:15:06.964Z,3.10
2022-08-02T03:17:45.390Z,3.30
2022-08-02T03:20:19.181Z,2.92
2022-08-02T03:22:47.052Z,3.10
2022-08-02T03:25:15.424Z,2.85
2022-08-02T03:27:42.604Z,3.37
2022-08-02T03:30:12.486Z,3.10
2022-08-02T03:32:42.227Z,2.85
2022-08-02T03:35:12.967Z,2.95
2022-08-02T03:37:40.930Z,2.67
2022-08-02T03:40:11.477Z,2.80
2022-08-02T03:42:40.681Z,2.90
2022-08-02T03:45:11.959Z,3.17
2022-08-02T03:47:39.950Z,2.92
2022-08-02T03:50:15.095Z,3.10
2022-08-02T03:52:44.014Z,2.65
2022-08-02T03:55:12.702Z,3.25
2022-08-02T03:57:41.714Z,3.20
2022-08-02T04:00:16.669Z,2.97
2022-08-02T04:02:43.183Z,3.00
2022-08-02T04:05:10.297Z,3.30
2022-08-02T04:08:36.152Z,3.22
2022-08-02T04:11:22.483Z,2.70
2022-08-02T04:13:49.788Z,2.80
2022-08-02T04:16:22.795Z,2.95
2022-08-02T04:19:14.916Z,3.10
2022-08-02T04:21:52.151Z,2.80
2022-08-02T04:24:34.377Z,2.78
2022-08-02T04:27:19.229Z,3.00
2022-08-02T04:30:17.511Z,3.17
2022-08-02T04:32:45.485Z,3.20
2022-08-02T04:35:21.014Z,3.15
2022-08-02T04:38:08.971Z,2.85
2022-08-02T04:40:37.495Z,2.87
2022-08-02T04:43:04.079Z,3.10
2022-08-02T04:45:31.224Z,3.33
2022-08-02T04:48:05.919Z,3.00
2022-08-02T04:50:33.183Z,2.97
2022-08-02T04:52:59.705Z,3.40
2022-08-02T04:55:27.905Z,2.95
2022-08-02T04:57:55.006Z,2.80
2022-08-02T05:00:21.607Z,2.70
2022-08-02T05:02:49.102Z,2.80
2022-08-02T05:05:16.220Z,2.65
2022-08-02T05:07:42.749Z,3.22
2022-08-02T05:10:09.547Z,2.70
2022-08-02T05:12:38.273Z,2.60
2022-08-02T05:15:06.255Z,3.00
2022-08-02T05:17:35.863Z,3.00
2022-08-02T05:20:04.868Z,2.72
2022-08-02T05:22:31.814Z,3.20
2022-08-02T05:24:58.329Z,3.05
2022-08-02T05:27:24.962Z,3.12
2022-08-02T05:29:54.136Z,2.95
2022-08-02T05:32:25.016Z,3.15
2022-08-02T05:34:51.923Z,2.90
2022-08-02T05:37:18.674Z,2.78
2022-08-02T05:39:55.601Z,2.42
2022-08-02T05:42:22.952Z,2.70
2022-08-02T05:44:49.514Z,3.05
2022-08-02T05:47:16.027Z,2.92
2022-08-02T05:49:42.559Z,3.30
2022-08-02T05:52:20.521Z,2.60
2022-08-02T05:55:06.768Z,3.65
2022-08-02T05:58:35.530Z,3.58
2022-08-02T06:01:03.892Z,2.80
2022-08-02T06:03:50.720Z,3.00
2022-08-02T06:06:24.823Z,2.87
2022-08-02T06:09:09.720Z,2.70
2022-08-02T06:12:01.615Z,2.83
2022-08-02T06:14:32.869Z,2.55
2022-08-02T06:17:03.932Z,2.62
2022-08-02T06:19:48.853Z,2.92
2022-08-02T06:22:32.032Z,3.08
2022-08-02T06:25:04.717Z,2.80
2022-08-02T06:27:33.320Z,2.75
2022-08-02T06:30:01.688Z,2.60
2022-08-02T06:32:28.219Z,2.47
2022-08-02T06:34:54.847Z,2.53
2022-08-02T06:37:59.064Z,2.87
2022-08-02T06:40:35.226Z,2.95
2022-08-02T06:43:20.469Z,3.00
2022-08-02T06:45:47.082Z,2.60
2022-08-02T06:48:13.818Z,3.08
2022-08-02T06:50:44.046Z,2.90
2022-08-02T06:53:11.551Z,3.05
2022-08-02T06:55:44.079Z,2.80
2022-08-02T06:58:12.813Z,2.55
2022-08-02T07:00:41.490Z,3.12
2022-08-02T07:03:08.307Z,3.00
2022-08-02T07:05:35.003Z,2.50
2022-08-02T07:08:02.290Z,2.83
2022-08-02T07:10:28.789Z,3.28
2022-08-02T07:12:59.556Z,2.60
2022-08-02T07:15:27.276Z,3.20
2022-08-02T07:17:53.841Z,2.95
2022-08-02T07:20:20.402Z,3.03
2022-08-02T07:22:46.954Z,2.65
2022-08-02T07:25:13.749Z,3.05
2022-08-02T07:27:40.285Z,3.00
2022-08-02T07:30:10.922Z,3.03
2022-08-02T07:32:37.662Z,2.80
2022-08-02T07:35:07.043Z,3.00
2022-08-02T07:37:55.096Z,3.15
2022-08-02T07:40:25.784Z,3.08
2022-08-02T07:43:02.459Z,3.12
2022-08-02T07:45:32.031Z,3.00
2022-08-02T07:47:58.619Z,3.08
2022-08-02T07:50:25.184Z,3.17
2022-08-02T07:52:57.725Z,3.00
2022-08-02T07:55:39.795Z,3.08
2022-08-02T07:58:13.047Z,2.87
2022-08-02T08:00:42.121Z,2.92
2022-08-02T08:03:08.675Z,3.20
2022-08-02T08:05:35.491Z,2.92
2022-08-02T08:08:02.008Z,2.80
2022-08-02T08:10:28.557Z,3.17
2022-08-02T08:12:55.085Z,3.25
2022-08-02T08:15:21.718Z,2.90
2022-08-02T08:17:48.253Z,2.60
2022-08-02T08:20:16.018Z,2.80
2022-08-02T08:22:42.658Z,2.75
2022-08-02T08:25:09.704Z,2.95
2022-08-02T08:27:36.243Z,2.70
2022-08-02T08:30:04.205Z,2.92
2022-08-02T08:32:30.712Z,2.37
2022-08-02T08:34:58.699Z,2.70
2022-08-02T08:37:25.321Z,2.55
2022-08-02T08:39:57.046Z,2.85
2022-08-02T08:42:30.831Z,2.80
2022-08-02T08:44:59.271Z,2.60
2022-08-02T08:47:41.052Z,2.67
2022-08-02T08:50:24.948Z,2.67
2022-08-02T08:53:05.397Z,2.75
2022-08-02T08:55:36.603Z,2.80
2022-08-02T08:58:04.941Z,3.35
2022-08-02T09:00:35.473Z,3.05
2022-08-02T09:03:04.877Z,2.45
2022-08-02T09:05:34.834Z,3.12
2022-08-02T09:08:01.378Z,2.60
2022-08-02T09:10:43.503Z,2.80
2022-08-02T09:13:39.066Z,2.95
2022-08-02T09:16:14.358Z,2.75
2022-08-02T09:18:46.626Z,2.80
2022-08-02T09:21:16.064Z,2.78
2022-08-02T09:23:46.614Z,2.58
2022-08-02T09:26:19.818Z,2.92
2022-08-02T09:28:50.280Z,2.90
2022-08-02T09:31:20.861Z,2.90
2022-08-02T09:33:57.333Z,2.70
2022-08-02T09:36:25.643Z,3.22
2022-08-02T09:39:01.033Z,2.72
2022-08-02T09:41:32.323Z,2.97
2022-08-02T09:44:04.879Z,3.00
2022-08-02T09:46:44.786Z,3.20
2022-08-02T09:49:18.666Z,3.35
2022-08-02T09:51:51.799Z,3.47
2022-08-02T09:54:29.008Z,3.45
2022-08-02T09:56:59.922Z,3.00
2022-08-02T09:59:28.810Z,3.00
2022-08-02T10:02:01.317Z,2.59
2022-08-02T10:04:31.973Z,2.80
2022-08-02T10:07:03.114Z,2.47
2022-08-02T10:09:30.112Z,2.28
2022-08-02T10:11:58.237Z,2.22
2022-08-02T10:14:27.198Z,2.35
2022-08-02T10:16:56.628Z,2.22
2022-08-02T10:19:59.815Z,2.45
2022-08-02T10:22:33.780Z,2.33
2022-08-02T10:25:03.984Z,2.20
2022-08-02T10:27:48.960Z,2.15
2022-08-02T10:30:26.312Z,2.40
2022-08-02T10:32:56.660Z,2.30
2022-08-02T10:35:26.353Z,2.60
2022-08-02T10:38:03.276Z,2.42
2022-08-02T10:40:53.871Z,2.70
2022-08-02T10:43:43.097Z,2.83
2022-08-02T10:46:40.422Z,2.58
2022-08-02T10:49:40.944Z,3.00
2022-08-02T10:52:08.605Z,3.10
2022-08-02T10:54:43.328Z,3.17
2022-08-02T10:57:33.020Z,3.00
2022-08-02T11:00:41.594Z,3.60
2022-08-02T11:03:39.600Z,3.35
2022-08-02T11:06:25.479Z,3.30
2022-08-02T11:09:33.803Z,3.37
2022-08-02T11:12:13.840Z,3.25
2022-08-02T11:14:44.786Z,3.12
2022-08-02T11:17:17.121Z,3.00
2022-08-02T11:20:35.117Z,3.10
2022-08-02T11:23:45.108Z,3.53
2022-08-02T11:28:36.467Z,3.22
2022-08-02T11:31:03.145Z,3.17
2022-08-02T11:33:33.932Z,2.80
2022-08-02T11:36:06.400Z,3.10
2022-08-02T11:38:32.975Z,2.92
2022-08-02T11:41:06.281Z,2.97
2022-08-02T11:43:37.879Z,2.60
2022-08-02T11:46:12.000Z,2.58
2022-08-02T11:48:40.864Z,2.72
2022-08-02T11:51:16.769Z,2.90
2022-08-02T11:53:52.446Z,2.75
2022-08-02T11:56:28.265Z,3.08
2022-08-02T11:59:10.185Z,2.70
2022-08-02T12:01:45.675Z,2.50
2022-08-02T12:04:18.525Z,2.97
2022-08-02T12:06:56.253Z,2.90
2022-08-02T12:09:26.161Z,2.72
2022-08-02T12:11:53.734Z,2.60
2022-08-02T12:14:20.439Z,2.80
2022-08-02T12:17:06.493Z,2.58
2022-08-02T12:19:34.459Z,2.90
2022-08-02T12:22:27.495Z,3.00
2022-08-02T12:24:56.815Z,2.65
2022-08-02T12:27:39.759Z,3.00
2022-08-02T12:30:18.656Z,3.00
2022-08-02T12:33:07.650Z,2.55
2022-08-02T12:35:39.887Z,2.55
2022-08-02T12:38:11.384Z,2.92
2022-08-02T12:40:38.110Z,2.62
2022-08-02T12:43:07.018Z,3.00
2022-08-02T12:45:52.656Z,2.78
2022-08-02T12:48:48.125Z,2.90
2022-08-02T12:51:56.763Z,2.42
2022-08-02T12:54:39.864Z,2.80
2022-08-02T12:57:14.537Z,2.62
2022-08-02T12:59:44.411Z,2.90
2022-08-02T13:02:19.078Z,2.80
2022-08-02T13:04:50.434Z,2.70
2022-08-02T13:07:18.725Z,3.15
2022-08-02T13:09:46.010Z,2.55
2022-08-02T13:12:13.020Z,2.90
2022-08-02T13:14:42.301Z,2.78
2022-08-02T13:17:09.826Z,2.78
2022-08-02T13:19:37.594Z,2.95
2022-08-02T13:22:04.449Z,3.15
2022-08-02T13:24:40.030Z,2.78
2022-08-02T13:27:21.531Z,3.00
2022-08-02T13:29:52.688Z,2.85
2022-08-02T13:32:20.401Z,2.80
2022-08-02T13:34:47.255Z,2.75
2022-08-02T13:37:14.898Z,3.20
2022-08-02T13:39:41.591Z,2.75
2022-08-02T13:42:12.123Z,2.60
2022-08-02T13:44:43.827Z,3.00
2022-08-02T13:47:10.770Z,3.03
2022-08-02T13:49:50.643Z,2.80
2022-08-02T13:52:18.451Z,2.87
2022-08-02T13:54:44.998Z,3.28
2022-08-02T13:57:13.794Z,4.03
2022-08-02T13:59:56.626Z,3.33
2022-08-02T14:02:27.341Z,3.00
2022-08-02T14:04:53.999Z,2.60
2022-08-02T14:07:20.622Z,3.15
2022-08-02T14:09:47.288Z,3.10
2022-08-02T14:12:14.312Z,3.40
2022-08-02T14:14:41.129Z,2.92
2022-08-02T14:17:07.661Z,3.05
2022-08-02T14:19:34.167Z,3.37
2022-08-02T14:22:12.022Z,3.08
2022-08-02T14:24:40.777Z,3.10
2022-08-02T14:27:07.542Z,2.90
2022-08-02T14:29:34.126Z,3.10
2022-08-02T14:32:01.402Z,2.90
2022-08-02T14:34:28.461Z,3.10
2022-08-02T14:36:58.018Z,3.00
2022-08-02T14:39:24.549Z,2.70
2022-08-02T14:41:58.501Z,2.92
2022-08-02T14:44:28.470Z,3.00
2022-08-02T14:46:55.660Z,2.78
2022-08-02T14:49:25.561Z,2.97
2022-08-02T14:51:56.751Z,2.70
2022-08-02T14:54:30.631Z,2.80
2022-08-02T14:57:03.165Z,2.70
2022-08-02T14:59:30.355Z,2.30
2022-08-02T15:01:58.266Z,2.62
2022-08-02T15:04:25.158Z,2.75
2022-08-02T15:06:51.828Z,2.62
2022-08-02T15:09:18.909Z,2.25
2022-08-02T15:11:47.565Z,2.50
2022-08-02T15:14:23.366Z,2.60
2022-08-02T15:16:58.787Z,2.33
2022-08-02T15:19:41.662Z,2.40
2022-08-02T15:22:25.599Z,2.30
2022-08-02T15:24:52.814Z,2.50
2022-08-02T15:27:19.450Z,2.60
2022-08-02T15:29:46.403Z,2.80
2022-08-02T15:32:16.555Z,2.65
2022-08-02T15:34:43.644Z,2.90
2022-08-02T15:37:10.211Z,2.70
2022-08-02T15:39:36.746Z,2.35
2022-08-02T15:42:04.122Z,2.53
2022-08-02T15:44:30.709Z,2.75
2022-08-02T15:46:57.594Z,2.62
2022-08-02T15:49:25.398Z,2.60
2022-08-02T15:51:53.514Z,2.30
2022-08-02T15:54:20.494Z,2.40
2022-08-02T15:56:47.152Z,2.30
2022-08-02T15:59:14.134Z,2.40
2022-08-02T16:01:44.976Z,2.40
2022-08-02T16:04:15.638Z,2.33
2022-08-02T16:06:43.239Z,2.40
2022-08-02T16:09:10.015Z,2.15
2022-08-02T16:11:36.662Z,2.20
2022-08-02T16:14:03.481Z,2.60
2022-08-02T16:16:34.382Z,2.25
2022-08-02T16:19:45.976Z,2.55
2022-08-02T16:22:17.336Z,2.60
2022-08-02T16:24:43.929Z,2.22
2022-08-02T16:27:10.444Z,2.58
2022-08-02T16:29:37.272Z,2.30
2022-08-02T16:32:05.515Z,2.22
2022-08-02T16:34:50.397Z,2.20
2022-08-02T16:37:52.446Z,2.30
2022-08-02T16:40:20.868Z,2.28
2022-08-02T16:42:50.627Z,2.25
2022-08-02T16:45:19.941Z,2.17
2022-08-02T16:47:55.146Z,2.75
2022-08-02T16:50:27.475Z,2.80
2022-08-02T16:52:59.011Z,2.72
2022-08-02T16:55:29.188Z,2.58
2022-08-02T16:57:59.706Z,2.58
2022-08-02T17:00:26.680Z,2.83
2022-08-02T17:02:53.216Z,2.55
2022-08-02T17:05:21.005Z,2.90
2022-08-02T17:08:07.878Z,2.72
2022-08-02T17:10:44.105Z,2.45
2022-08-02T17:13:18.981Z,2.70
2022-08-02T17:16:08.306Z,2.53
2022-08-02T17:18:47.093Z,2.53
2022-08-02T17:21:18.558Z,2.58
2022-08-02T17:28:14.954Z,2.85
2022-08-02T17:30:41.473Z,2.65
2022-08-02T17:33:08.550Z,2.33
2022-08-02T17:35:43.551Z,2.42
2022-08-02T17:38:26.372Z,2.85
2022-08-02T17:40:57.962Z,2.83
2022-08-02T17:43:25.945Z,2.62
2022-08-02T17:46:01.049Z,2.70
2022-08-02T17:49:15.658Z,2.95
2022-08-02T17:52:49.420Z,2.70
2022-08-02T17:55:18.947Z,2.90
2022-08-02T17:57:55.892Z,2.80
2022-08-02T18:00:34.824Z,2.53
2022-08-02T18:03:05.475Z,2.92
2022-08-02T18:05:40.294Z,2.92
2022-08-02T18:08:23.145Z,3.33
2022-08-02T18:10:54.944Z,3.50
2022-08-02T18:13:22.353Z,3.83
2022-08-02T18:15:57.325Z,4.90
2022-08-02T18:18:29.203Z,4.65
2022-08-02T18:20:57.687Z,4.05
2022-08-02T18:23:24.221Z,4.00
2022-08-02T18:25:55.147Z,4.45
2022-08-02T18:28:22.507Z,3.65
2022-08-02T18:30:53.696Z,3.60
2022-08-02T18:33:55.593Z,3.65
2022-08-02T18:36:27.965Z,3.60
2022-08-02T18:38:54.484Z,3.22
2022-08-02T18:41:21.498Z,4.10
2022-08-02T18:43:48.332Z,3.45
2022-08-02T18:46:17.113Z,3.50
2022-08-02T18:48:48.125Z,2.95
2022-08-02T18:51:18.622Z,2.65
2022-08-02T18:53:50.152Z,3.45
2022-08-02T18:56:19.681Z,3.67
2022-08-02T18:58:55.339Z,3.72
2022-08-02T19:01:32.230Z,3.37
2022-08-02T19:04:02.463Z,3.58
2022-08-02T19:06:29.965Z,3.50
2022-08-02T19:09:05.002Z,3.60
2022-08-02T19:11:35.030Z,3.33
2022-08-02T19:14:02.116Z,3.50
2022-08-02T19:16:37.062Z,3.35
2022-08-02T19:19:05.947Z,3.72
2022-08-02T19:22:15.509Z,3.42
2022-08-02T19:24:43.776Z,3.33
2022-08-02T19:27:14.339Z,3.50
2022-08-02T19:29:51.063Z,3.05
2022-08-02T19:32:40.174Z,3.25
2022-08-02T19:35:19.208Z,3.53
2022-08-02T19:38:08.826Z,3.17
2022-08-02T19:40:36.974Z,3.40
2022-08-02T19:44:24.724Z,3.35
2022-08-02T19:46:55.334Z,3.37
2022-08-02T19:49:39.816Z,3.00
2022-08-02T19:52:20.497Z,3.50
2022-08-02T19:54:55.637Z,3.60
2022-08-02T19:57:25.010Z,3.22
2022-08-02T19:59:55.187Z,3.90
2022-08-02T20:02:21.729Z,3.35
2022-08-02T20:04:50.428Z,3.58
2022-08-02T20:07:54.356Z,3.58
2022-08-02T20:10:24.707Z,3.10
2022-08-02T20:12:53.316Z,3.60
2022-08-02T20:15:22.610Z,3.70
2022-08-02T20:18:26.545Z,3.60
2022-08-02T20:20:53.679Z,3.80
2022-08-02T20:27:51.920Z,3.55
2022-08-02T20:30:19.233Z,3.42
2022-08-02T20:32:52.681Z,3.55
2022-08-02T20:35:20.768Z,3.95
2022-08-02T20:42:23.154Z,3.60
2022-08-02T20:44:54.865Z,3.75
2022-08-02T20:47:27.742Z,3.55
2022-08-02T20:50:14.240Z,3.58
2022-08-02T20:52:41.929Z,3.75
2022-08-02T20:55:09.511Z,3.08
2022-08-02T20:57:59.906Z,3.28
2022-08-02T21:00:28.024Z,3.92
2022-08-02T21:02:54.526Z,5.50
2022-08-02T21:05:43.331Z,3.53
2022-08-02T21:08:14.188Z,3.97
2022-08-02T21:10:43.598Z,3.60
2022-08-02T21:13:18.742Z,3.80
2022-08-02T21:15:49.033Z,3.53
2022-08-02T21:18:23.021Z,3.60
2022-08-02T21:20:57.082Z,3.72
2022-08-02T21:23:23.682Z,3.90
2022-08-02T21:25:56.929Z,3.33
2022-08-02T21:28:43.839Z,3.78
2022-08-02T21:32:56.918Z,3.22
2022-08-02T21:35:24.510Z,3.58
2022-08-02T21:37:58.305Z,4.07
2022-08-02T21:40:25.069Z,3.62
2022-08-02T21:42:51.645Z,3.40
2022-08-02T21:45:20.043Z,3.40
2022-08-02T21:47:46.865Z,3.85
2022-08-02T21:50:16.329Z,4.10
2022-08-02T21:52:52.099Z,3.72
2022-08-02T21:55:23.948Z,3.80
2022-08-02T21:57:51.139Z,3.50
2022-08-02T22:00:28.616Z,3.72
2022-08-02T22:02:55.709Z,3.80
2022-08-02T22:05:22.505Z,3.45
2022-08-02T22:07:50.594Z,3.53
2022-08-02T22:10:17.565Z,3.53
2022-08-02T22:12:44.909Z,3.62
2022-08-02T22:15:11.832Z,3.37
2022-08-02T22:17:51.777Z,3.60
2022-08-02T22:20:21.270Z,3.03
2022-08-02T22:22:52.618Z,3.75
2022-08-02T22:25:26.546Z,3.65
2022-08-02T22:28:35.572Z,3.67
2022-08-02T22:31:06.760Z,3.87
2022-08-02T22:34:01.119Z,3.85
2022-08-02T22:41:08.046Z,4.05
2022-08-02T22:43:35.880Z,3.80
2022-08-02T22:46:05.035Z,4.00
2022-08-02T22:48:35.902Z,3.60
2022-08-02T22:51:06.735Z,3.70
2022-08-02T22:53:35.711Z,3.50
2022-08-02T22:56:04.878Z,3.62
2022-08-02T22:58:32.521Z,3.67
2022-08-02T22:58:38.244Z,2.60
2022-08-02T22:58:55.405Z,3.40
2022-08-02T22:58:55.827Z,3.60
2022-08-02T23:00:59.968Z,3.42
2022-08-02T23:03:27.687Z,6.25
2022-08-02T23:05:54.344Z,3.60
2022-08-02T23:08:21.143Z,4.07
2022-08-02T23:10:48.404Z,3.97
2022-08-02T23:13:15.496Z,3.30
2022-08-02T23:16:00.945Z,3.03
2022-08-02T23:18:46.402Z,3.35
2022-08-02T23:21:13.363Z,3.72
2022-08-02T23:23:54.185Z,3.67
2022-08-02T23:26:20.723Z,3.78
2022-08-02T23:28:47.258Z,3.65
2022-08-02T23:31:38.073Z,3.37
2022-08-02T23:34:05.294Z,3.47
2022-08-02T23:36:33.159Z,3.87
2022-08-02T23:39:00.017Z,3.70
2022-08-02T23:41:27.185Z,4.20
2022-08-02T23:44:12.489Z,4.10
2022-08-02T23:46:45.562Z,3.78
2022-08-02T23:49:13.759Z,4.20
2022-08-02T23:51:40.339Z,4.30
2022-08-02T23:54:07.376Z,4.05
2022-08-02T23:56:33.949Z,5.20
2022-08-02T23:59:00.470Z,3.75
